^^
Station Historical Data
 
Daily Summary for September 25, 2018 Units:  Both    English   Metric
« Previous Day
Next Day »
Daily Weekly Monthly Yearly Custom
  Current: High: Low: Average:
Temperature: 75.7 °F /  24.3 °C TemperatureF °F /  -17.8 °C 63.9 °F /  17.7 °C 75 °F /  23.9 °C
Dew Point: 27.9 °F /  -2.3 °C DewpointF °F /  -17.8 °C 22.8 °F /  -5.1 °C 30.2 °F /  -1 °C
Humidity: 17% Humidity% 12% 20%
Wind Speed: 0mph /  0km/h WindSpeedMPHmph /  0km/h - 1.1mph /  1.8km/h
Wind Gust: 9mph /  14.5km/h WindSpeedGustMPHmph /  0km/h - -
WindCalm - - WSW
Pressure: 29.72 in /  1006.3 hPa PressureIn in /  0 hPa 29.64 in /  1003.6 hPa -
Precipitation: 0 in /  0 mm      
Historical Graphs
 
 
Tabular Data for September 25, 2018
Time Temperature Dew Point Pressure Wind Wind Speed Wind Gust Humidity Rainfall Rate (Hourly) solar Conditions
TemperatureF °F /  -17.8 °C DewpointF °F /  -17.8 °C PressureInin /  0hPa Calm     Humidity% HourlyPrecipInin /  0mm SolarRadiationWatts/m^2 W/m2 Conditions
00:04 65.8 °F /  18.8 °C 31.8 °F /  -0.1 °C 29.72in /  1006.3hPa Calm     28% 0in /  0mm 0.00 W/m2
00:09 65.7 °F /  18.7 °C 32.5 °F /  0.3 °C 29.71in /  1006hPa Calm     29% 0in /  0mm 0.00 W/m2
00:14 65.5 °F /  18.6 °C 31.5 °F /  -0.3 °C 29.72in /  1006.3hPa Calm   1mph /  1.6km/h 28% 0in /  0mm 0.00 W/m2
00:19 65.5 °F /  18.6 °C 31.5 °F /  -0.3 °C 29.71in /  1006hPa Calm     28% 0in /  0mm 0.00 W/m2
00:24 65.5 °F /  18.6 °C 31.5 °F /  -0.3 °C 29.71in /  1006hPa Calm     28% 0in /  0mm 0.00 W/m2
00:29 65.5 °F /  18.6 °C 31.5 °F /  -0.3 °C 29.71in /  1006hPa Calm     28% 0in /  0mm 0.00 W/m2
00:34 65.3 °F /  18.5 °C 31.3 °F /  -0.4 °C 29.71in /  1006hPa Calm     28% 0in /  0mm 0.00 W/m2
00:39 65.1 °F /  18.4 °C 31.3 °F /  -0.4 °C 29.71in /  1006hPa Calm     28% 0in /  0mm 0.00 W/m2
00:44 64.9 °F /  18.3 °C 32 °F /  0 °C 29.71in /  1006hPa Calm     29% 0in /  0mm 0.00 W/m2
00:49 64.8 °F /  18.2 °C 31.8 °F /  -0.1 °C 29.71in /  1006hPa Calm   1mph /  1.6km/h 29% 0in /  0mm 0.00 W/m2
00:54 64.8 °F /  18.2 °C 31.8 °F /  -0.1 °C 29.71in /  1006hPa Calm     29% 0in /  0mm 0.00 W/m2
00:59 64.9 °F /  18.3 °C 32 °F /  0 °C 29.70in /  1005.6hPa Calm     29% 0in /  0mm 0.00 W/m2
01:04 65.1 °F /  18.4 °C 32 °F /  0 °C 29.70in /  1005.6hPa Calm     29% 0in /  0mm 0.00 W/m2
01:09 65.3 °F /  18.5 °C 31.3 °F /  -0.4 °C 29.71in /  1006hPa Calm     28% 0in /  0mm 0.00 W/m2
01:14 65.5 °F /  18.6 °C 31.5 °F /  -0.3 °C 29.71in /  1006hPa Calm   1mph /  1.6km/h 28% 0in /  0mm 0.00 W/m2
01:19 65.7 °F /  18.7 °C 31.6 °F /  -0.2 °C 29.71in /  1006hPa Calm   1mph /  1.6km/h 28% 0in /  0mm 0.00 W/m2
01:24 65.8 °F /  18.8 °C 31.8 °F /  -0.1 °C 29.70in /  1005.6hPa Calm   1mph /  1.6km/h 28% 0in /  0mm 0.00 W/m2
01:29 65.8 °F /  18.8 °C 31.8 °F /  -0.1 °C 29.71in /  1006hPa Calm     28% 0in /  0mm 0.00 W/m2
01:33 66 °F /  18.9 °C 32 °F /  0 °C 29.71in /  1006hPa Calm     28% 0in /  0mm 0.00 W/m2
01:39 66.2 °F /  19 °C 32.2 °F /  0.1 °C 29.72in /  1006.3hPa Calm     28% 0in /  0mm 0.00 W/m2
01:44 66.4 °F /  19.1 °C 32.4 °F /  0.2 °C 29.72in /  1006.3hPa Calm     28% 0in /  0mm 0.00 W/m2
01:49 66.4 °F /  19.1 °C 32.4 °F /  0.2 °C 29.71in /  1006hPa East 2mph /  3.2km/h 3mph /  4.8km/h 28% 0in /  0mm 0.00 W/m2
01:54 66.7 °F /  19.3 °C 31.6 °F /  -0.2 °C 29.70in /  1005.6hPa East 4mph /  6.4km/h 7mph /  11.3km/h 27% 0in /  0mm 0.00 W/m2
01:59 67.6 °F /  19.8 °C 31.5 °F /  -0.3 °C 29.70in /  1005.6hPa Calm   5mph /  8km/h 26% 0in /  0mm 0.00 W/m2
02:04 68 °F /  20 °C 31.8 °F /  -0.1 °C 29.70in /  1005.6hPa Calm   2mph /  3.2km/h 26% 0in /  0mm 0.00 W/m2
02:09 68.4 °F /  20.2 °C 32.2 °F /  0.1 °C 29.71in /  1006hPa Calm   8mph /  12.9km/h 26% 0in /  0mm 0.00 W/m2
02:14 68.4 °F /  20.2 °C 32.2 °F /  0.1 °C 29.70in /  1005.6hPa ESE 0.9mph /  1.4km/h 3mph /  4.8km/h 26% 0in /  0mm 0.00 W/m2
02:18 68.4 °F /  20.2 °C 32.2 °F /  0.1 °C 29.70in /  1005.6hPa Calm   3mph /  4.8km/h 26% 0in /  0mm 0.00 W/m2
02:24 68.5 °F /  20.3 °C 31.3 °F /  -0.4 °C 29.70in /  1005.6hPa Calm   1mph /  1.6km/h 25% 0in /  0mm 0.00 W/m2
02:29 68.5 °F /  20.3 °C 31.3 °F /  -0.4 °C 29.70in /  1005.6hPa Calm   1mph /  1.6km/h 25% 0in /  0mm 0.00 W/m2
02:34 68.5 °F /  20.3 °C 32.4 °F /  0.2 °C 29.70in /  1005.6hPa Calm   1mph /  1.6km/h 26% 0in /  0mm 0.00 W/m2
02:39 68.4 °F /  20.2 °C 31.1 °F /  -0.5 °C 29.70in /  1005.6hPa Calm     25% 0in /  0mm 0.00 W/m2
02:44 68.2 °F /  20.1 °C 31.1 °F /  -0.5 °C 29.70in /  1005.6hPa Calm     25% 0in /  0mm 0.00 W/m2
02:49 68 °F /  20 °C 31.8 °F /  -0.1 °C 29.70in /  1005.6hPa Calm     26% 0in /  0mm 0.00 W/m2
02:54 67.6 °F /  19.8 °C 32.5 °F /  0.3 °C 29.70in /  1005.6hPa Calm     27% 0in /  0mm 0.00 W/m2
02:59 67.5 °F /  19.7 °C 32.4 °F /  0.2 °C 29.70in /  1005.6hPa Calm     27% 0in /  0mm 0.00 W/m2
03:04 66.9 °F /  19.4 °C 31.8 °F /  -0.1 °C 29.70in /  1005.6hPa Calm   1mph /  1.6km/h 27% 0in /  0mm 0.00 W/m2
03:09 66.7 °F /  19.3 °C 31.6 °F /  -0.2 °C 29.70in /  1005.6hPa Calm     27% 0in /  0mm 0.00 W/m2
03:14 66.6 °F /  19.2 °C 31.5 °F /  -0.3 °C 29.70in /  1005.6hPa Calm     27% 0in /  0mm 0.00 W/m2
03:19 66.4 °F /  19.1 °C 31.5 °F /  -0.3 °C 29.70in /  1005.6hPa Calm     27% 0in /  0mm 0.00 W/m2
03:24 66 °F /  18.9 °C 32 °F /  0 °C 29.69in /  1005.3hPa Calm     28% 0in /  0mm 0.00 W/m2
03:29 65.8 °F /  18.8 °C 31.8 °F /  -0.1 °C 29.69in /  1005.3hPa Calm     28% 0in /  0mm 0.00 W/m2
03:34 65.7 °F /  18.7 °C 31.6 °F /  -0.2 °C 29.69in /  1005.3hPa Calm     28% 0in /  0mm 0.00 W/m2
03:39 65.5 °F /  18.6 °C 31.5 °F /  -0.3 °C 29.69in /  1005.3hPa Calm     28% 0in /  0mm 0.00 W/m2
03:44 65.3 °F /  18.5 °C 31.3 °F /  -0.4 °C 29.70in /  1005.6hPa Calm     28% 0in /  0mm 0.00 W/m2
03:49 65.1 °F /  18.4 °C 32 °F /  0 °C 29.70in /  1005.6hPa Calm     29% 0in /  0mm 0.00 W/m2
03:54 64.9 °F /  18.3 °C 32 °F /  0 °C 29.70in /  1005.6hPa Calm     29% 0in /  0mm 0.00 W/m2
03:59 64.9 °F /  18.3 °C 32 °F /  0 °C 29.71in /  1006hPa Calm     29% 0in /  0mm 0.00 W/m2
04:04 64.9 °F /  18.3 °C 32 °F /  0 °C 29.70in /  1005.6hPa Calm     29% 0in /  0mm 0.00 W/m2
04:09 64.9 °F /  18.3 °C 32.7 °F /  0.4 °C 29.69in /  1005.3hPa Calm     30% 0in /  0mm 0.00 W/m2
04:14 64.9 °F /  18.3 °C 32.7 °F /  0.4 °C 29.70in /  1005.6hPa Calm     30% 0in /  0mm 0.00 W/m2
04:19 65.1 °F /  18.4 °C 32.9 °F /  0.5 °C 29.70in /  1005.6hPa Calm     30% 0in /  0mm 0.00 W/m2
04:24 65.1 °F /  18.4 °C 32.9 °F /  0.5 °C 29.70in /  1005.6hPa Calm     30% 0in /  0mm 0.00 W/m2
04:29 65.1 °F /  18.4 °C 32 °F /  0 °C 29.70in /  1005.6hPa SSE 2mph /  3.2km/h 3mph /  4.8km/h 29% 0in /  0mm 0.00 W/m2
04:34 65.5 °F /  18.6 °C 32.4 °F /  0.2 °C 29.70in /  1005.6hPa SE 4mph /  6.4km/h 7mph /  11.3km/h 29% 0in /  0mm 0.00 W/m2
04:39 65.8 °F /  18.8 °C 31.8 °F /  -0.1 °C 29.70in /  1005.6hPa Calm   1mph /  1.6km/h 28% 0in /  0mm 0.00 W/m2
04:44 65.8 °F /  18.8 °C 31.8 °F /  -0.1 °C 29.70in /  1005.6hPa Calm   2mph /  3.2km/h 28% 0in /  0mm 0.00 W/m2
04:49 66 °F /  18.9 °C 32 °F /  0 °C 29.70in /  1005.6hPa Calm   1mph /  1.6km/h 28% 0in /  0mm 0.00 W/m2
04:54 66 °F /  18.9 °C 32 °F /  0 °C 29.69in /  1005.3hPa Calm     28% 0in /  0mm 0.00 W/m2
04:59 65.8 °F /  18.8 °C 31.8 °F /  -0.1 °C 29.69in /  1005.3hPa Calm     28% 0in /  0mm 0.00 W/m2
05:04 65.7 °F /  18.7 °C 31.6 °F /  -0.2 °C 29.70in /  1005.6hPa Calm   1mph /  1.6km/h 28% 0in /  0mm 0.00 W/m2
05:09 65.5 °F /  18.6 °C 31.5 °F /  -0.3 °C 29.70in /  1005.6hPa Calm     28% 0in /  0mm 0.00 W/m2
05:14 65.1 °F /  18.4 °C 32 °F /  0 °C 29.71in /  1006hPa Calm   1mph /  1.6km/h 29% 0in /  0mm 0.00 W/m2
05:19 65.1 °F /  18.4 °C 32 °F /  0 °C 29.71in /  1006hPa Calm     29% 0in /  0mm 0.00 W/m2
05:24 64.9 °F /  18.3 °C 32 °F /  0 °C 29.72in /  1006.3hPa Calm     29% 0in /  0mm 0.00 W/m2
05:29 64.8 °F /  18.2 °C 32.5 °F /  0.3 °C 29.72in /  1006.3hPa Calm     30% 0in /  0mm 0.00 W/m2
05:34 64.8 °F /  18.2 °C 31.8 °F /  -0.1 °C 29.72in /  1006.3hPa Calm     29% 0in /  0mm 0.00 W/m2
05:39 64.6 °F /  18.1 °C 32.4 °F /  0.2 °C 29.72in /  1006.3hPa Calm     30% 0in /  0mm 0.00 W/m2
05:44 64.6 °F /  18.1 °C 32.4 °F /  0.2 °C 29.72in /  1006.3hPa Calm     30% 0in /  0mm 0.00 W/m2
05:49 64.6 °F /  18.1 °C 32.4 °F /  0.2 °C 29.72in /  1006.3hPa Calm   2mph /  3.2km/h 30% 0in /  0mm 0.00 W/m2
05:54 64.4 °F /  18 °C 31.5 °F /  -0.3 °C 29.72in /  1006.3hPa Calm     29% 0in /  0mm 0.00 W/m2
05:59 64.4 °F /  18 °C 32.4 °F /  0.2 °C 29.73in /  1006.7hPa Calm     30% 0in /  0mm 0.00 W/m2
06:04 64.2 °F /  17.9 °C 32.2 °F /  0.1 °C 29.73in /  1006.7hPa Calm     30% 0in /  0mm 0.00 W/m2
06:09 64.2 °F /  17.9 °C 32.2 °F /  0.1 °C 29.72in /  1006.3hPa Calm     30% 0in /  0mm 0.00 W/m2
06:14 64.2 °F /  17.9 °C 32.2 °F /  0.1 °C 29.72in /  1006.3hPa Calm     30% 0in /  0mm 0.00 W/m2
06:19 64.2 °F /  17.9 °C 31.3 °F /  -0.4 °C 29.71in /  1006hPa ESE 2mph /  3.2km/h 2mph /  3.2km/h 29% 0in /  0mm 0.00 W/m2
06:24 64.4 °F /  18 °C 31.5 °F /  -0.3 °C 29.71in /  1006hPa Calm   1mph /  1.6km/h 29% 0in /  0mm 0.00 W/m2
06:29 64.6 °F /  18.1 °C 30.7 °F /  -0.7 °C 29.71in /  1006hPa Calm   2mph /  3.2km/h 28% 0in /  0mm 0.00 W/m2
06:34 64.6 °F /  18.1 °C 30.7 °F /  -0.7 °C 29.71in /  1006hPa Calm   2mph /  3.2km/h 28% 0in /  0mm 0.00 W/m2
06:39 64.6 °F /  18.1 °C 31.6 °F /  -0.2 °C 29.71in /  1006hPa Calm   1mph /  1.6km/h 29% 0in /  0mm 0.00 W/m2
06:44 64.2 °F /  17.9 °C 31.3 °F /  -0.4 °C 29.72in /  1006.3hPa NE 0.9mph /  1.4km/h 4mph /  6.4km/h 29% 0in /  0mm 5.00 W/m2
06:49 64 °F /  17.8 °C 29.3 °F /  -1.5 °C 29.72in /  1006.3hPa Calm   2mph /  3.2km/h 27% 0in /  0mm 9.00 W/m2
06:54 64 °F /  17.8 °C 29.3 °F /  -1.5 °C 29.72in /  1006.3hPa East 4mph /  6.4km/h 5mph /  8km/h 27% 0in /  0mm 14.00 W/m2
06:59 64 °F /  17.8 °C 29.3 °F /  -1.5 °C 29.72in /  1006.3hPa Calm   2mph /  3.2km/h 27% 0in /  0mm 18.00 W/m2
07:04 63.9 °F /  17.7 °C 29.3 °F /  -1.5 °C 29.72in /  1006.3hPa ENE 0.9mph /  1.4km/h 2mph /  3.2km/h 27% 0in /  0mm 25.00 W/m2
07:09 63.9 °F /  17.7 °C 29.3 °F /  -1.5 °C 29.72in /  1006.3hPa Calm   1mph /  1.6km/h 27% 0in /  0mm 35.00 W/m2
07:14 63.9 °F /  17.7 °C 29.3 °F /  -1.5 °C 29.72in /  1006.3hPa Calm   3mph /  4.8km/h 27% 0in /  0mm 47.00 W/m2
07:19 63.9 °F /  17.7 °C 28.2 °F /  -2.1 °C 29.73in /  1006.7hPa Calm   2mph /  3.2km/h 26% 0in /  0mm 67.00 W/m2
07:24 63.9 °F /  17.7 °C 28.2 °F /  -2.1 °C 29.73in /  1006.7hPa ENE 0.9mph /  1.4km/h 1mph /  1.6km/h 26% 0in /  0mm 74.00 W/m2
07:29 64 °F /  17.8 °C 29.3 °F /  -1.5 °C 29.73in /  1006.7hPa Calm   1mph /  1.6km/h 27% 0in /  0mm 67.00 W/m2
07:34 64.2 °F /  17.9 °C 27.7 °F /  -2.4 °C 29.72in /  1006.3hPa Calm   1mph /  1.6km/h 25% 0in /  0mm 51.00 W/m2
07:39 64.6 °F /  18.1 °C 28 °F /  -2.2 °C 29.72in /  1006.3hPa Calm   1mph /  1.6km/h 25% 0in /  0mm 49.00 W/m2
07:44 64.6 °F /  18.1 °C 27 °F /  -2.8 °C 29.72in /  1006.3hPa Calm   1mph /  1.6km/h 24% 0in /  0mm 49.00 W/m2
07:49 64.9 °F /  18.3 °C 26.2 °F /  -3.2 °C 29.73in /  1006.7hPa Calm     23% 0in /  0mm 63.00 W/m2
07:54 65.1 °F /  18.4 °C 25.3 °F /  -3.7 °C 29.73in /  1006.7hPa Calm     22% 0in /  0mm 70.00 W/m2
07:59 65.8 °F /  18.8 °C 27 °F /  -2.8 °C 29.74in /  1007hPa Calm     23% 0in /  0mm 69.00 W/m2
08:04 66.2 °F /  19 °C 28.4 °F /  -2 °C 29.74in /  1007hPa Calm     24% 0in /  0mm 74.00 W/m2
08:09 66.6 °F /  19.2 °C 26.6 °F /  -3 °C 29.74in /  1007hPa Calm     22% 0in /  0mm 77.00 W/m2
08:14 66.9 °F /  19.4 °C 28.9 °F /  -1.7 °C 29.74in /  1007hPa Calm     24% 0in /  0mm 83.00 W/m2
08:19 67.5 °F /  19.7 °C 25 °F /  -3.9 °C 29.74in /  1007hPa Calm     20% 0in /  0mm 91.00 W/m2
08:24 67.8 °F /  19.9 °C 22.8 °F /  -5.1 °C 29.74in /  1007hPa Calm     18% 0in /  0mm 91.00 W/m2
08:28 68.5 °F /  20.3 °C 23.4 °F /  -4.8 °C 29.74in /  1007hPa Calm   1mph /  1.6km/h 18% 0in /  0mm 95.00 W/m2
08:34 69.3 °F /  20.7 °C 23.9 °F /  -4.5 °C 29.74in /  1007hPa Calm   2mph /  3.2km/h 18% 0in /  0mm 100.00 W/m2
08:39 70 °F /  21.1 °C 24.4 °F /  -4.2 °C 29.74in /  1007hPa Calm   1mph /  1.6km/h 18% 0in /  0mm 105.00 W/m2
08:44 70.3 °F /  21.3 °C 24.8 °F /  -4 °C 29.74in /  1007hPa Calm   2mph /  3.2km/h 18% 0in /  0mm 111.00 W/m2
08:49 70.9 °F /  21.6 °C 25.3 °F /  -3.7 °C 29.74in /  1007hPa Calm   2mph /  3.2km/h 18% 0in /  0mm 114.00 W/m2
08:54 71.1 °F /  21.7 °C 25.3 °F /  -3.7 °C 29.74in /  1007hPa Calm   2mph /  3.2km/h 18% 0in /  0mm 118.00 W/m2
08:59 71.4 °F /  21.9 °C 25.7 °F /  -3.5 °C 29.74in /  1007hPa Calm   1mph /  1.6km/h 18% 0in /  0mm 121.00 W/m2
09:04 71.8 °F /  22.1 °C 26.1 °F /  -3.3 °C 29.74in /  1007hPa Calm   1mph /  1.6km/h 18% 0in /  0mm 125.00 W/m2
09:09 72 °F /  22.2 °C 26.1 °F /  -3.3 °C 29.74in /  1007hPa West 2.9mph /  4.7km/h 3mph /  4.8km/h 18% 0in /  0mm 128.00 W/m2
09:14 72.1 °F /  22.3 °C 26.2 °F /  -3.2 °C 29.74in /  1007hPa Calm   3mph /  4.8km/h 18% 0in /  0mm 134.00 W/m2
09:19 72.3 °F /  22.4 °C 26.4 °F /  -3.1 °C 29.74in /  1007hPa Calm   3mph /  4.8km/h 18% 0in /  0mm 137.00 W/m2
09:23 72.7 °F /  22.6 °C 25.3 °F /  -3.7 °C 29.75in /  1007.3hPa Calm   1mph /  1.6km/h 17% 0in /  0mm 141.00 W/m2
09:29 72.9 °F /  22.7 °C 25.5 °F /  -3.6 °C 29.74in /  1007hPa Calm   1mph /  1.6km/h 17% 0in /  0mm 148.00 W/m2
09:34 73 °F /  22.8 °C 25.7 °F /  -3.5 °C 29.74in /  1007hPa Calm   1mph /  1.6km/h 17% 0in /  0mm 153.00 W/m2
09:39 73.2 °F /  22.9 °C 25.7 °F /  -3.5 °C 29.74in /  1007hPa Calm   1mph /  1.6km/h 17% 0in /  0mm 413.00 W/m2
09:44 73.8 °F /  23.2 °C 26.2 °F /  -3.2 °C 29.74in /  1007hPa Calm   3mph /  4.8km/h 17% 0in /  0mm 531.00 W/m2
09:49 74.5 °F /  23.6 °C 28.2 °F /  -2.1 °C 29.75in /  1007.3hPa Calm   1mph /  1.6km/h 18% 0in /  0mm 552.00 W/m2
09:54 75.2 °F /  24 °C 27.3 °F /  -2.6 °C 29.75in /  1007.3hPa Calm   3mph /  4.8km/h 17% 0in /  0mm 612.00 W/m2
09:59 75.9 °F /  24.4 °C 26.4 °F /  -3.1 °C 29.75in /  1007.3hPa Calm   2mph /  3.2km/h 16% 0in /  0mm 499.00 W/m2
10:04 76.6 °F /  24.8 °C 27.1 °F /  -2.7 °C 29.75in /  1007.3hPa Calm   1mph /  1.6km/h 16% 0in /  0mm 714.00 W/m2
10:09 77.4 °F /  25.2 °C 27.7 °F /  -2.4 °C 29.75in /  1007.3hPa WSW 0.9mph /  1.4km/h 3mph /  4.8km/h 16% 0in /  0mm 396.00 W/m2
10:14 77.7 °F /  25.4 °C 27.9 °F /  -2.3 °C 29.75in /  1007.3hPa NW 0.9mph /  1.4km/h 1mph /  1.6km/h 16% 0in /  0mm 413.00 W/m2
10:19 78.3 °F /  25.7 °C 26.8 °F /  -2.9 °C 29.75in /  1007.3hPa Calm   3mph /  4.8km/h 15% 0in /  0mm 759.00 W/m2
10:24 79.2 °F /  26.2 °C 27.5 °F /  -2.5 °C 29.75in /  1007.3hPa Calm   3mph /  4.8km/h 15% 0in /  0mm 559.00 W/m2
10:29 80.1 °F /  26.7 °C 26.6 °F /  -3 °C 29.74in /  1007hPa West 2mph /  3.2km/h 5mph /  8km/h 14% 0in /  0mm 749.00 W/m2
10:34 80.6 °F /  27 °C 27 °F /  -2.8 °C 29.74in /  1007hPa Calm   3mph /  4.8km/h 14% 0in /  0mm 758.00 W/m2
10:39 81.1 °F /  27.3 °C 27.5 °F /  -2.5 °C 29.74in /  1007hPa Calm   6mph /  9.7km/h 14% 0in /  0mm 708.00 W/m2
10:44 81.7 °F /  27.6 °C 27.9 °F /  -2.3 °C 29.74in /  1007hPa Calm   1mph /  1.6km/h 14% 0in /  0mm 768.00 W/m2
10:49 82 °F /  27.8 °C 26.4 °F /  -3.1 °C 29.73in /  1006.7hPa Calm   9mph /  14.5km/h 13% 0in /  0mm 715.00 W/m2
10:54 82.6 °F /  28.1 °C 28.6 °F /  -1.9 °C 29.73in /  1006.7hPa West 0.9mph /  1.4km/h 4mph /  6.4km/h 14% 0in /  0mm 742.00 W/m2
10:59 82.6 °F /  28.1 °C 26.8 °F /  -2.9 °C 29.73in /  1006.7hPa WNW 2mph /  3.2km/h 4mph /  6.4km/h 13% 0in /  0mm 749.00 W/m2
11:04 82.6 °F /  28.1 °C 26.8 °F /  -2.9 °C 29.73in /  1006.7hPa Calm   6mph /  9.7km/h 13% 0in /  0mm 643.00 W/m2
11:09 82.6 °F /  28.1 °C 28.6 °F /  -1.9 °C 29.73in /  1006.7hPa West 2mph /  3.2km/h 5mph /  8km/h 14% 0in /  0mm 779.00 W/m2
11:14 82.6 °F /  28.1 °C 26.8 °F /  -2.9 °C 29.73in /  1006.7hPa NW 2mph /  3.2km/h 5mph /  8km/h 13% 0in /  0mm 828.00 W/m2
11:19 82.6 °F /  28.1 °C 28.6 °F /  -1.9 °C 29.72in /  1006.3hPa NW 0.9mph /  1.4km/h 8mph /  12.9km/h 14% 0in /  0mm 807.00 W/m2
11:24 82.9 °F /  28.3 °C 28.8 °F /  -1.8 °C 29.72in /  1006.3hPa Calm   2mph /  3.2km/h 14% 0in /  0mm 803.00 W/m2
11:29 82.9 °F /  28.3 °C 28.8 °F /  -1.8 °C 29.72in /  1006.3hPa Calm   1mph /  1.6km/h 14% 0in /  0mm 784.00 W/m2
11:34 83.1 °F /  28.4 °C 28.9 °F /  -1.7 °C 29.72in /  1006.3hPa Calm   5mph /  8km/h 14% 0in /  0mm 789.00 W/m2
11:39 83.8 °F /  28.8 °C 27.7 °F /  -2.4 °C 29.72in /  1006.3hPa WSW 0.9mph /  1.4km/h 4mph /  6.4km/h 13% 0in /  0mm 796.00 W/m2
11:44 84.2 °F /  29 °C 28 °F /  -2.2 °C 29.72in /  1006.3hPa NNW 2mph /  3.2km/h 5mph /  8km/h 13% 0in /  0mm 802.00 W/m2
11:49 84.6 °F /  29.2 °C 26.4 °F /  -3.1 °C 29.72in /  1006.3hPa NNW 4.9mph /  7.9km/h 9mph /  14.5km/h 12% 0in /  0mm 798.00 W/m2
11:54 84.9 °F /  29.4 °C 26.6 °F /  -3 °C 29.71in /  1006hPa NNW 2mph /  3.2km/h 7mph /  11.3km/h 12% 0in /  0mm 800.00 W/m2
11:59 85.1 °F /  29.5 °C 28.8 °F /  -1.8 °C 29.71in /  1006hPa WNW 8.1mph /  13km/h 10mph /  16.1km/h 13% 0in /  0mm 803.00 W/m2
12:04 85.3 °F /  29.6 °C 28.9 °F /  -1.7 °C 29.71in /  1006hPa WSW 2mph /  3.2km/h 3mph /  4.8km/h 13% 0in /  0mm 807.00 W/m2
12:09 85.5 °F /  29.7 °C 27.1 °F /  -2.7 °C 29.71in /  1006hPa West 2mph /  3.2km/h 4mph /  6.4km/h 12% 0in /  0mm 814.00 W/m2
12:14 85.8 °F /  29.9 °C 27.3 °F /  -2.6 °C 29.70in /  1005.6hPa West 0.9mph /  1.4km/h 6mph /  9.7km/h 12% 0in /  0mm 819.00 W/m2
12:19 86.4 °F /  30.2 °C 27.7 °F /  -2.4 °C 29.70in /  1005.6hPa ENE 2mph /  3.2km/h 5mph /  8km/h 12% 0in /  0mm 826.00 W/m2
12:24 86.4 °F /  30.2 °C 27.7 °F /  -2.4 °C 29.70in /  1005.6hPa West 0.9mph /  1.4km/h 6mph /  9.7km/h 12% 0in /  0mm 835.00 W/m2
12:29 86.5 °F /  30.3 °C 27.9 °F /  -2.3 °C 29.70in /  1005.6hPa Calm   3mph /  4.8km/h 12% 0in /  0mm 872.00 W/m2
12:34 86.4 °F /  30.2 °C 27.7 °F /  -2.4 °C 29.70in /  1005.6hPa West 6mph /  9.7km/h 6mph /  9.7km/h 12% 0in /  0mm 659.00 W/m2
12:38 86.4 °F /  30.2 °C 27.7 °F /  -2.4 °C 29.70in /  1005.6hPa NNW 4mph /  6.4km/h 9mph /  14.5km/h 12% 0in /  0mm 448.00 W/m2
12:44 86.2 °F /  30.1 °C 27.7 °F /  -2.4 °C 29.70in /  1005.6hPa NNW 4mph /  6.4km/h 7mph /  11.3km/h 12% 0in /  0mm 548.00 W/m2
12:49 85.8 °F /  29.9 °C 29.3 °F /  -1.5 °C 29.70in /  1005.6hPa Calm   10mph /  16.1km/h 13% 0in /  0mm 979.00 W/m2
12:54 86 °F /  30 °C 29.5 °F /  -1.4 °C 29.70in /  1005.6hPa West 6mph /  9.7km/h 8mph /  12.9km/h 13% 0in /  0mm 763.00 W/m2
12:59 86.2 °F /  30.1 °C 29.7 °F /  -1.3 °C 29.70in /  1005.6hPa Calm   7mph /  11.3km/h 13% 0in /  0mm 823.00 W/m2
13:04 86.4 °F /  30.2 °C 29.7 °F /  -1.3 °C 29.69in /  1005.3hPa NW 0.9mph /  1.4km/h 5mph /  8km/h 13% 0in /  0mm 833.00 W/m2
13:09 86.4 °F /  30.2 °C 29.7 °F /  -1.3 °C 29.69in /  1005.3hPa WNW 2.9mph /  4.7km/h 6mph /  9.7km/h 13% 0in /  0mm 840.00 W/m2
13:14 86.4 °F /  30.2 °C 29.7 °F /  -1.3 °C 29.68in /  1005hPa NNW 4mph /  6.4km/h 10mph /  16.1km/h 13% 0in /  0mm 854.00 W/m2
13:19 86.5 °F /  30.3 °C 29.8 °F /  -1.2 °C 29.68in /  1005hPa West 0.9mph /  1.4km/h 5mph /  8km/h 13% 0in /  0mm 863.00 W/m2
13:24 86.7 °F /  30.4 °C 30 °F /  -1.1 °C 29.67in /  1004.6hPa NNE 6.9mph /  11.1km/h 7mph /  11.3km/h 13% 0in /  0mm 452.00 W/m2
13:29 86.5 °F /  30.3 °C 31.6 °F /  -0.2 °C 29.67in /  1004.6hPa NNE 0.9mph /  1.4km/h 9mph /  14.5km/h 14% 0in /  0mm 851.00 W/m2
13:34 86.5 °F /  30.3 °C 31.6 °F /  -0.2 °C 29.67in /  1004.6hPa NNW 4.9mph /  7.9km/h 8mph /  12.9km/h 14% 0in /  0mm 868.00 W/m2
13:39 87.1 °F /  30.6 °C 30.2 °F /  -1 °C 29.67in /  1004.6hPa NNE 2mph /  3.2km/h 8mph /  12.9km/h 13% 0in /  0mm 886.00 W/m2
13:44 87.4 °F /  30.8 °C 32.4 °F /  0.2 °C 29.67in /  1004.6hPa Calm   8mph /  12.9km/h 14% 0in /  0mm 858.00 W/m2
13:49 88 °F /  31.1 °C 32.9 °F /  0.5 °C 29.67in /  1004.6hPa West 6mph /  9.7km/h 6mph /  9.7km/h 14% 0in /  0mm 826.00 W/m2
13:54 88 °F /  31.1 °C 30.9 °F /  -0.6 °C 29.67in /  1004.6hPa NNE 2.9mph /  4.7km/h 5mph /  8km/h 13% 0in /  0mm 821.00 W/m2
13:59 88 °F /  31.1 °C 30.9 °F /  -0.6 °C 29.67in /  1004.6hPa North 2.9mph /  4.7km/h 7mph /  11.3km/h 13% 0in /  0mm 803.00 W/m2
14:04 87.8 °F /  31 °C 32.7 °F /  0.4 °C 29.66in /  1004.3hPa Calm   4mph /  6.4km/h 14% 0in /  0mm 817.00 W/m2
14:09 88.3 °F /  31.3 °C 33.1 °F /  0.6 °C 29.66in /  1004.3hPa NNW 6.9mph /  11.1km/h 8mph /  12.9km/h 14% 0in /  0mm 796.00 W/m2
14:13 88.5 °F /  31.4 °C 31.5 °F /  -0.3 °C 29.66in /  1004.3hPa WNW 2.9mph /  4.7km/h 7mph /  11.3km/h 13% 0in /  0mm 682.00 W/m2
14:19 88.2 °F /  31.2 °C 32.9 °F /  0.5 °C 29.65in /  1003.9hPa NW 2.9mph /  4.7km/h 9mph /  14.5km/h 14% 0in /  0mm 758.00 W/m2
14:24 88.2 °F /  31.2 °C 32.9 °F /  0.5 °C 29.65in /  1003.9hPa NW 2mph /  3.2km/h 3mph /  4.8km/h 14% 0in /  0mm 773.00 W/m2
14:29 88.3 °F /  31.3 °C 33.1 °F /  0.6 °C 29.65in /  1003.9hPa NNW 8.1mph /  13km/h 10mph /  16.1km/h 14% 0in /  0mm 186.00 W/m2
14:34 88 °F /  31.1 °C 32.9 °F /  0.5 °C 29.65in /  1003.9hPa SW 2mph /  3.2km/h 3mph /  4.8km/h 14% 0in /  0mm 183.00 W/m2
14:39 87.6 °F /  30.9 °C 32.5 °F /  0.3 °C 29.65in /  1003.9hPa Calm   7mph /  11.3km/h 14% 0in /  0mm 735.00 W/m2
14:44 87.6 °F /  30.9 °C 32.5 °F /  0.3 °C 29.65in /  1003.9hPa WNW 6mph /  9.7km/h 7mph /  11.3km/h 14% 0in /  0mm 301.00 W/m2
14:49 87.1 °F /  30.6 °C 32.2 °F /  0.1 °C 29.65in /  1003.9hPa WSW 4mph /  6.4km/h 4mph /  6.4km/h 14% 0in /  0mm 172.00 W/m2
14:53 86.7 °F /  30.4 °C 33.6 °F /  0.9 °C 29.65in /  1003.9hPa West 6mph /  9.7km/h 10mph /  16.1km/h 15% 0in /  0mm 698.00 W/m2
14:59 86.7 °F /  30.4 °C 31.8 °F /  -0.1 °C 29.65in /  1003.9hPa SSW 0.9mph /  1.4km/h 6mph /  9.7km/h 14% 0in /  0mm 682.00 W/m2
15:04 87.1 °F /  30.6 °C 33.8 °F /  1 °C 29.64in /  1003.6hPa SW 4.9mph /  7.9km/h 8mph /  12.9km/h 15% 0in /  0mm 664.00 W/m2
15:09 87.3 °F /  30.7 °C 32.2 °F /  0.1 °C 29.65in /  1003.9hPa WNW 2mph /  3.2km/h 7mph /  11.3km/h 14% 0in /  0mm 652.00 W/m2
15:13 87.8 °F /  31 °C 32.7 °F /  0.4 °C 29.65in /  1003.9hPa Calm   7mph /  11.3km/h 14% 0in /  0mm 640.00 W/m2
15:19 87.6 °F /  30.9 °C 34.3 °F /  1.3 °C 29.64in /  1003.6hPa NW 2.9mph /  4.7km/h 9mph /  14.5km/h 15% 0in /  0mm 629.00 W/m2
15:24 87.4 °F /  30.8 °C 34.2 °F /  1.2 °C 29.64in /  1003.6hPa WNW 2.9mph /  4.7km/h 9mph /  14.5km/h 15% 0in /  0mm 622.00 W/m2
15:29 87.8 °F /  31 °C 32.7 °F /  0.4 °C 29.64in /  1003.6hPa WSW 4mph /  6.4km/h 12mph /  19.3km/h 14% 0in /  0mm 598.00 W/m2
15:34 87.4 °F /  30.8 °C 34.2 °F /  1.2 °C 29.64in /  1003.6hPa Calm   6mph /  9.7km/h 15% 0in /  0mm 580.00 W/m2
15:39 87.3 °F /  30.7 °C 34 °F /  1.1 °C 29.64in /  1003.6hPa WSW 2.9mph /  4.7km/h 7mph /  11.3km/h 15% 0in /  0mm 568.00 W/m2
15:44 87.4 °F /  30.8 °C 32.4 °F /  0.2 °C 29.64in /  1003.6hPa NW 0.9mph /  1.4km/h 7mph /  11.3km/h 14% 0in /  0mm 548.00 W/m2
15:49 87.6 °F /  30.9 °C 34.3 °F /  1.3 °C 29.64in /  1003.6hPa WSW 2.9mph /  4.7km/h 12mph /  19.3km/h 15% 0in /  0mm 524.00 W/m2
15:54 87.6 °F /  30.9 °C 34.3 °F /  1.3 °C 29.64in /  1003.6hPa NNW 4mph /  6.4km/h 8mph /  12.9km/h 15% 0in /  0mm 517.00 W/m2
15:59 88 °F /  31.1 °C 32.9 °F /  0.5 °C 29.64in /  1003.6hPa WNW 2.9mph /  4.7km/h 9mph /  14.5km/h 14% 0in /  0mm 489.00 W/m2
16:03 88.2 °F /  31.2 °C 32.9 °F /  0.5 °C 29.65in /  1003.9hPa Calm   9mph /  14.5km/h 14% 0in /  0mm 478.00 W/m2
16:09 88.2 °F /  31.2 °C 32.9 °F /  0.5 °C 29.65in /  1003.9hPa WSW 2mph /  3.2km/h 7mph /  11.3km/h 14% 0in /  0mm 459.00 W/m2
16:14 88.2 °F /  31.2 °C 32.9 °F /  0.5 °C 29.65in /  1003.9hPa Calm   5mph /  8km/h 14% 0in /  0mm 450.00 W/m2
16:19 88 °F /  31.1 °C 32.9 °F /  0.5 °C 29.64in /  1003.6hPa WSW 0.9mph /  1.4km/h 10mph /  16.1km/h 14% 0in /  0mm 425.00 W/m2
16:24 87.8 °F /  31 °C 32.7 °F /  0.4 °C 29.64in /  1003.6hPa WNW 0.9mph /  1.4km/h 8mph /  12.9km/h 14% 0in /  0mm 413.00 W/m2
16:29 87.3 °F /  30.7 °C 32.2 °F /  0.1 °C 29.64in /  1003.6hPa WSW 2.9mph /  4.7km/h 6mph /  9.7km/h 14% 0in /  0mm 392.00 W/m2
16:34 87.1 °F /  30.6 °C 33.8 °F /  1 °C 29.64in /  1003.6hPa West 2.9mph /  4.7km/h 8mph /  12.9km/h 15% 0in /  0mm 371.00 W/m2
16:39 87.1 °F /  30.6 °C 33.8 °F /  1 °C 29.65in /  1003.9hPa NNW 0.9mph /  1.4km/h 3mph /  4.8km/h 15% 0in /  0mm 350.00 W/m2
16:44 87.1 °F /  30.6 °C 33.8 °F /  1 °C 29.65in /  1003.9hPa Calm   10mph /  16.1km/h 15% 0in /  0mm 336.00 W/m2
16:49 86.7 °F /  30.4 °C 33.6 °F /  0.9 °C 29.65in /  1003.9hPa WNW 4mph /  6.4km/h 7mph /  11.3km/h 15% 0in /  0mm 318.00 W/m2
16:54 86.2 °F /  30.1 °C 33.1 °F /  0.6 °C 29.65in /  1003.9hPa Calm   9mph /  14.5km/h 15% 0in /  0mm 302.00 W/m2
16:58 85.8 °F /  29.9 °C 32.9 °F /  0.5 °C 29.65in /  1003.9hPa WNW 2mph /  3.2km/h 5mph /  8km/h 15% 0in /  0mm 288.00 W/m2
17:04 85.6 °F /  29.8 °C 32.7 °F /  0.4 °C 29.65in /  1003.9hPa WSW 0.9mph /  1.4km/h 7mph /  11.3km/h 15% 0in /  0mm 274.00 W/m2
17:09 85.8 °F /  29.9 °C 32.9 °F /  0.5 °C 29.66in /  1004.3hPa WSW 0.9mph /  1.4km/h 3mph /  4.8km/h 15% 0in /  0mm 258.00 W/m2
17:14 85.5 °F /  29.7 °C 32.5 °F /  0.3 °C 29.66in /  1004.3hPa SW 0.9mph /  1.4km/h 6mph /  9.7km/h 15% 0in /  0mm 237.00 W/m2
17:19 85.5 °F /  29.7 °C 32.5 °F /  0.3 °C 29.66in /  1004.3hPa SW 2mph /  3.2km/h 10mph /  16.1km/h 15% 0in /  0mm 221.00 W/m2
17:24 85.3 °F /  29.6 °C 32.4 °F /  0.2 °C 29.65in /  1003.9hPa WSW 2mph /  3.2km/h 7mph /  11.3km/h 15% 0in /  0mm 202.00 W/m2
17:29 84.9 °F /  29.4 °C 32.2 °F /  0.1 °C 29.66in /  1004.3hPa SW 6.9mph /  11.1km/h 9mph /  14.5km/h 15% 0in /  0mm 185.00 W/m2
17:34 84.6 °F /  29.2 °C 31.8 °F /  -0.1 °C 29.66in /  1004.3hPa WSW 4mph /  6.4km/h 9mph /  14.5km/h 15% 0in /  0mm 169.00 W/m2
17:39 84.4 °F /  29.1 °C 31.6 °F /  -0.2 °C 29.66in /  1004.3hPa SSW 0.9mph /  1.4km/h 8mph /  12.9km/h 15% 0in /  0mm 153.00 W/m2
17:44 84 °F /  28.9 °C 31.5 °F /  -0.3 °C 29.66in /  1004.3hPa West 0.9mph /  1.4km/h 6mph /  9.7km/h 15% 0in /  0mm 141.00 W/m2
17:49 83.8 °F /  28.8 °C 31.3 °F /  -0.4 °C 29.66in /  1004.3hPa WSW 4mph /  6.4km/h 7mph /  11.3km/h 15% 0in /  0mm 118.00 W/m2
17:54 83.7 °F /  28.7 °C 31.1 °F /  -0.5 °C 29.66in /  1004.3hPa NW 6.9mph /  11.1km/h 7mph /  11.3km/h 15% 0in /  0mm 105.00 W/m2
17:59 83.5 °F /  28.6 °C 30.9 °F /  -0.6 °C 29.67in /  1004.6hPa WSW 2mph /  3.2km/h 7mph /  11.3km/h 15% 0in /  0mm 91.00 W/m2
18:04 83.1 °F /  28.4 °C 30.7 °F /  -0.7 °C 29.67in /  1004.6hPa WSW 2.9mph /  4.7km/h 8mph /  12.9km/h 15% 0in /  0mm 74.00 W/m2
18:09 82.8 °F /  28.2 °C 30.4 °F /  -0.9 °C 29.67in /  1004.6hPa West 2mph /  3.2km/h 8mph /  12.9km/h 15% 0in /  0mm 62.00 W/m2
18:14 82.4 °F /  28 °C 30.2 °F /  -1 °C 29.67in /  1004.6hPa WSW 2mph /  3.2km/h 8mph /  12.9km/h 15% 0in /  0mm 47.00 W/m2
18:19 82 °F /  27.8 °C 29.8 °F /  -1.2 °C 29.67in /  1004.6hPa WSW 4.9mph /  7.9km/h 8mph /  12.9km/h 15% 0in /  0mm 35.00 W/m2
18:24 81.3 °F /  27.4 °C 29.3 °F /  -1.5 °C 29.68in /  1005hPa Calm   5mph /  8km/h 15% 0in /  0mm 25.00 W/m2
18:29 80.8 °F /  27.1 °C 30.4 °F /  -0.9 °C 29.68in /  1005hPa WSW 0.9mph /  1.4km/h 7mph /  11.3km/h 16% 0in /  0mm 19.00 W/m2
18:34 80.1 °F /  26.7 °C 29.8 °F /  -1.2 °C 29.68in /  1005hPa Calm   8mph /  12.9km/h 16% 0in /  0mm 12.00 W/m2
18:39 79.3 °F /  26.3 °C 29.3 °F /  -1.5 °C 29.69in /  1005.3hPa West 2mph /  3.2km/h 8mph /  12.9km/h 16% 0in /  0mm 9.00 W/m2
18:43 78.8 °F /  26 °C 28.8 °F /  -1.8 °C 29.69in /  1005.3hPa WSW 2mph /  3.2km/h 9mph /  14.5km/h 16% 0in /  0mm 5.00 W/m2
18:49 78.3 °F /  25.7 °C 28.4 °F /  -2 °C 29.70in /  1005.6hPa Calm   6mph /  9.7km/h 16% 0in /  0mm 0.00 W/m2
18:54 77.7 °F /  25.4 °C 27.9 °F /  -2.3 °C 29.70in /  1005.6hPa SW 0.9mph /  1.4km/h 7mph /  11.3km/h 16% 0in /  0mm 0.00 W/m2
18:59 77.2 °F /  25.1 °C 28.9 °F /  -1.7 °C 29.70in /  1005.6hPa SSW 4mph /  6.4km/h 10mph /  16.1km/h 17% 0in /  0mm 0.00 W/m2
19:04 76.5 °F /  24.7 °C 28.4 °F /  -2 °C 29.71in /  1006hPa West 2mph /  3.2km/h 7mph /  11.3km/h 17% 0in /  0mm 0.00 W/m2
19:09 76.3 °F /  24.6 °C 28.2 °F /  -2.1 °C 29.71in /  1006hPa WSW 2mph /  3.2km/h 4mph /  6.4km/h 17% 0in /  0mm 0.00 W/m2
19:14 75.7 °F /  24.3 °C 27.9 °F /  -2.3 °C 29.72in /  1006.3hPa Calm   9mph /  14.5km/h 17% 0in /  0mm 0.00 W/m2
Olympia, Windhoek, Namibia
Compliments of Weather Underground - 3 mb